Time;durP1;ratioP1;P1;durP2;ratioP2;P2;SDS_P1;SDS_P2;PMS_P1;PMS_P2;Temp;Humidity;BMP_temperature;BMP_pressure;BME280_temperature;BME280_humidity;BME280_pressure;Samples;Min_cycle;Max_cycle;Signal;HPM_P1;HPM_P2
2022/03/03 00:00:00;;;;;;;16.43;9.33;;;;;;;;;;5057914;28;20420;-80
2022/03/03 00:02:26;;;;;;;17.07;9.10;;;-0.60;99.90;;;;;;5056435;28;20444;-80
2022/03/03 00:04:52;;;;;;;15.07;9.70;;;-0.50;99.90;;;;;;5056014;28;20181;-79
2022/03/03 00:07:19;;;;;;;16.20;10.00;;;;;;;;;;5057589;28;20705;-79
2022/03/03 00:09:45;;;;;;;15.67;9.03;;;-0.50;99.90;;;;;;5057270;28;20393;-79
2022/03/03 00:12:11;;;;;;;18.57;9.43;;;;;;;;;;5057348;28;20239;-79
2022/03/03 00:14:37;;;;;;;18.33;9.00;;;;;;;;;;5056779;28;20184;-79
2022/03/03 00:17:03;;;;;;;14.83;9.13;;;;;;;;;;5056037;28;20890;-79
2022/03/03 00:19:29;;;;;;;16.73;9.23;;;;;;;;;;5054769;28;20428;-80
2022/03/03 00:21:55;;;;;;;18.70;8.70;;;;;;;;;;5055033;28;20436;-80
2022/03/03 00:24:21;;;;;;;21.77;9.03;;;;;;;;;;5055216;28;20449;-80
2022/03/03 00:26:47;;;;;;;14.93;9.13;;;-0.70;99.90;;;;;;5059575;28;20412;-80
2022/03/03 00:29:13;;;;;;;14.37;9.17;;;-0.60;99.90;;;;;;5059161;28;20180;-80
2022/03/03 00:31:39;;;;;;;17.13;9.37;;;;;;;;;;5058367;28;20216;-80
2022/03/03 00:34:04;;;;;;;12.60;8.00;;;-0.90;99.90;;;;;;5058997;28;20195;-79
2022/03/03 00:36:30;;;;;;;13.53;8.50;;;;;;;;;;5058091;28;20213;-80
2022/03/03 00:38:56;;;;;;;13.73;7.40;;;;;;;;;;5058857;28;20683;-79
2022/03/03 00:41:22;;;;;;;12.33;7.73;;;;;;;;;;5057809;28;20482;-80
2022/03/03 00:43:48;;;;;;;11.77;6.97;;;;;;;;;;5057343;28;20487;-80
2022/03/03 00:46:14;;;;;;;13.63;8.00;;;;;;;;;;5057234;28;20447;-79
2022/03/03 00:48:40;;;;;;;12.50;7.50;;;;;;;;;;5057621;28;20415;-79
2022/03/03 00:51:07;;;;;;;17.07;6.13;;;-0.90;99.90;;;;;;5056792;28;20436;-79
2022/03/03 00:53:37;;;;;;;13.17;7.80;;;-0.90;99.90;;;;;;5058373;28;20439;-79
2022/03/03 00:56:04;;;;;;;14.60;7.83;;;;;;;;;;5057646;28;20872;-79
2022/03/03 00:58:30;;;;;;;13.70;7.07;;;;;;;;;;5058972;28;20913;-79
2022/03/03 01:00:56;;;;;;;11.20;6.67;;;;;;;;;;5059144;28;20435;-79
2022/03/03 01:03:22;;;;;;;13.50;8.57;;;;;;;;;;5058705;28;20491;-80
2022/03/03 01:05:48;;;;;;;13.27;7.97;;;-0.80;99.90;;;;;;5058798;28;20476;-80
2022/03/03 01:08:14;;;;;;;15.33;7.67;;;;;;;;;;5059419;28;20232;-80
2022/03/03 01:10:40;;;;;;;14.63;7.87;;;;;;;;;;5064077;28;20212;-79
2022/03/03 01:13:06;;;;;;;12.67;7.97;;;-1.00;99.90;;;;;;5071277;28;20415;-79
2022/03/03 01:15:33;;;;;;;13.53;8.20;;;;;;;;;;5070543;28;20460;-79
2022/03/03 01:17:59;;;;;;;12.87;7.57;;;;;;;;;;5058492;28;20427;-80
2022/03/03 01:20:27;;;;;;;15.07;8.30;;;;;;;;;;5058781;28;20417;-80
2022/03/03 01:22:53;;;;;;;13.47;8.97;;;;;;;;;;5056923;28;20408;-79
2022/03/03 01:25:19;;;;;;;17.63;9.30;;;-1.10;99.90;;;;;;5058944;28;20936;-79
2022/03/03 01:27:45;;;;;;;19.70;10.50;;;-0.90;99.90;;;;;;5057462;28;20412;-79
2022/03/03 01:30:11;;;;;;;14.10;7.40;;;;;;;;;;5057328;28;20632;-80
2022/03/03 01:32:37;;;;;;;16.03;7.97;;;-1.10;99.90;;;;;;5058712;28;20180;-80
2022/03/03 01:35:03;;;;;;;16.03;8.97;;;-1.10;99.90;;;;;;5057223;28;20789;-79
2022/03/03 01:37:29;;;;;;;20.83;8.60;;;-0.90;99.90;;;;;;5058016;28;20213;-80
2022/03/03 01:39:55;;;;;;;16.67;9.90;;;;;;;;;;5058102;28;20185;-80
2022/03/03 01:42:21;;;;;;;15.63;7.83;;;;;;;;;;5058332;28;20202;-79
2022/03/03 01:44:47;;;;;;;14.40;8.83;;;;;;;;;;5057075;28;20418;-79
2022/03/03 01:47:21;;;;;;;17.23;8.53;;;-1.00;99.90;;;;;;5059207;28;20769;-80
2022/03/03 01:49:47;;;;;;;16.33;7.93;;;-1.10;99.90;;;;;;5072088;28;20455;-79
2022/03/03 01:52:14;;;;;;;12.90;8.23;;;;;;;;;;5086352;28;20452;-79
2022/03/03 01:54:40;;;;;;;16.27;8.63;;;;;;;;;;5059260;28;20419;-79
2022/03/03 01:57:07;;;;;;;15.30;8.07;;;-1.20;99.90;;;;;;5057559;28;20989;-79
2022/03/03 01:59:34;;;;;;;16.10;8.50;;;-1.20;99.90;;;;;;5057714;28;20416;-79
2022/03/03 02:02:00;;;;;;;16.83;7.90;;;;;;;;;;5058789;28;20428;-79
2022/03/03 02:04:26;;;;;;;13.13;7.80;;;;;;;;;;5059835;28;20417;-79
2022/03/03 02:06:52;;;;;;;13.03;7.87;;;;;;;;;;5057239;28;20439;-79
2022/03/03 02:09:18;;;;;;;13.47;7.47;;;;;;;;;;5056968;28;20413;-79
2022/03/03 02:11:48;;;;;;;14.40;8.87;;;-1.30;99.90;;;;;;5057118;28;20424;-79
2022/03/03 02:14:14;;;;;;;13.13;8.73;;;;;;;;;;5056863;28;20169;-79
2022/03/03 02:16:40;;;;;;;20.33;8.53;;;;;;;;;;5058735;28;20949;-79
2022/03/03 02:19:06;;;;;;;15.40;8.37;;;-1.30;99.90;;;;;;5058736;28;20762;-79
2022/03/03 02:21:33;;;;;;;11.53;7.47;;;;;;;;;;5058127;28;20829;-79
2022/03/03 02:23:59;;;;;;;13.10;7.67;;;-1.30;99.90;;;;;;5058537;28;20412;-79
2022/03/03 02:26:25;;;;;;;16.40;8.77;;;;;;;;;;5058035;28;20408;-79
2022/03/03 02:28:53;;;;;;;13.83;8.70;;;-1.40;99.90;;;;;;5057136;28;20503;-79
2022/03/03 02:31:19;;;;;;;18.33;8.87;;;-1.40;99.90;;;;;;5056137;28;20506;-79
2022/03/03 02:33:46;;;;;;;14.63;7.97;;;-1.50;99.90;;;;;;5057779;28;20479;-79
2022/03/03 02:36:27;;;;;;;13.73;8.47;;;-1.50;99.90;;;;;;5057921;28;20459;-79
2022/03/03 02:38:54;;;;;;;15.27;8.67;;;-1.50;99.90;;;;;;5056964;28;20800;-79
2022/03/03 02:41:20;;;;;;;13.73;7.87;;;-1.50;99.90;;;;;;5056805;28;20444;-79
2022/03/03 02:43:47;;;;;;;14.87;9.03;;;;;;;;;;5057780;28;20419;-79
2022/03/03 02:46:13;;;;;;;15.30;9.07;;;-1.60;99.90;;;;;;5056346;28;20489;-79
2022/03/03 02:48:39;;;;;;;15.03;8.13;;;-1.40;99.90;;;;;;5056450;28;20441;-79
2022/03/03 02:51:06;;;;;;;15.40;9.13;;;-1.60;99.90;;;;;;5057299;28;20436;-79
2022/03/03 02:53:32;;;;;;;13.90;8.30;;;;;;;;;;5059751;28;20446;-79
2022/03/03 02:55:58;;;;;;;13.00;7.63;;;-1.50;99.90;;;;;;5060961;28;20953;-79
2022/03/03 02:58:24;;;;;;;13.13;7.73;;;;;;;;;;5060679;28;20170;-79
2022/03/03 03:00:50;;;;;;;15.77;8.30;;;;;;;;;;5057998;28;20202;-79
2022/03/03 03:03:17;;;;;;;17.07;7.67;;;-1.50;99.90;;;;;;5059075;28;20546;-79
2022/03/03 03:05:43;;;;;;;13.50;7.27;;;;;;;;;;5058089;28;20534;-79
2022/03/03 03:08:09;;;;;;;11.70;6.53;;;;;;;;;;5057928;28;20408;-79
2022/03/03 03:10:36;;;;;;;13.80;6.97;;;;;;;;;;5057715;28;20436;-79
2022/03/03 03:13:03;;;;;;;13.20;8.07;;;-1.60;99.90;;;;;;5056048;28;20419;-79
2022/03/03 03:15:28;;;;;;;13.67;8.03;;;-1.60;99.90;;;;;;5060778;28;20414;-79
2022/03/03 03:17:54;;;;;;;12.77;7.07;;;-1.60;99.90;;;;;;5060361;28;20483;-79
2022/03/03 03:20:20;;;;;;;11.13;6.23;;;-1.80;99.90;;;;;;5059680;28;20275;-79
2022/03/03 03:22:46;;;;;;;11.03;7.13;;;-1.70;99.90;;;;;;5061600;28;20223;-79
2022/03/03 03:25:13;;;;;;;14.30;6.07;;;-1.70;99.90;;;;;;5060849;28;20499;-79
2022/03/03 03:27:41;;;;;;;11.23;6.90;;;-1.80;99.90;;;;;;5060068;28;20420;-79
2022/03/03 03:30:09;;;;;;;17.00;7.27;;;-1.90;99.90;;;;;;5060368;28;20416;-79
2022/03/03 03:32:35;;;;;;;14.57;7.63;;;-1.90;99.90;;;;;;5060488;28;20436;-79
2022/03/03 03:35:01;;;;;;;12.90;6.87;;;-2.00;99.90;;;;;;5060161;28;20446;-79
2022/03/03 03:37:27;;;;;;;12.83;7.30;;;;;;;;;;5059740;28;20588;-79
2022/03/03 03:39:53;;;;;;;10.77;7.00;;;-1.90;99.90;;;;;;5058734;28;20196;-79
2022/03/03 03:42:18;;;;;;;9.73;6.63;;;-1.90;99.90;;;;;;5060138;28;20922;-79
2022/03/03 03:44:44;;;;;;;17.90;8.73;;;-2.00;99.90;;;;;;5059365;28;20181;-79
2022/03/03 03:47:12;;;;;;;13.40;7.70;;;-2.00;99.90;;;;;;5059514;28;20224;-79
2022/03/03 03:49:38;;;;;;;11.70;7.10;;;-2.10;99.90;;;;;;5059115;28;20276;-79
2022/03/03 03:52:04;;;;;;;12.33;7.63;;;-1.80;99.90;;;;;;5060284;28;20871;-80
2022/03/03 03:54:29;;;;;;;11.93;7.43;;;-2.00;99.90;;;;;;5058900;28;20185;-79
2022/03/03 03:56:55;;;;;;;14.47;7.97;;;-2.10;99.90;;;;;;5060780;28;20205;-80
2022/03/03 03:59:21;;;;;;;15.17;8.53;;;-2.00;99.90;;;;;;5060284;28;20525;-80
2022/03/03 04:01:46;;;;;;;15.30;8.27;;;-1.70;99.90;;;;;;5058467;28;20205;-80
2022/03/03 04:04:12;;;;;;;17.93;8.00;;;;;;;;;;5089389;28;20181;-78
2022/03/03 04:06:39;;;;;;;12.30;7.07;;;;;;;;;;5060885;28;20228;-79
2022/03/03 04:09:05;;;;;;;15.90;8.00;;;;;;;;;;5058642;28;20408;-79
2022/03/03 04:11:31;;;;;;;12.13;8.03;;;;;;;;;;5060484;28;20428;-79
2022/03/03 04:13:57;;;;;;;11.70;7.40;;;-2.00;99.90;;;;;;5060403;28;20404;-79
2022/03/03 04:16:26;;;;;;;17.97;7.80;;;-2.00;99.90;;;;;;5058019;28;20455;-79
2022/03/03 04:18:53;;;;;;;13.67;7.77;;;;;;;;;;5075082;28;20473;-79
2022/03/03 04:21:19;;;;;;;16.30;8.67;;;;;;;;;;5058183;28;20961;-79
2022/03/03 04:23:45;;;;;;;13.43;7.53;;;;;;;;;;5058537;28;20415;-80
2022/03/03 04:26:11;;;;;;;15.93;8.20;;;;;;;;;;5059559;28;20416;-79
2022/03/03 04:28:37;;;;;;;13.60;7.63;;;-2.10;99.90;;;;;;5059604;28;20411;-80
2022/03/03 04:31:03;;;;;;;14.13;6.03;;;-2.20;99.90;;;;;;5059390;28;20446;-79
2022/03/03 04:33:29;;;;;;;16.70;7.27;;;;;;;;;;5059393;28;20518;-79
2022/03/03 04:35:56;;;;;;;12.73;7.10;;;-2.20;99.90;;;;;;5057705;28;20977;-80
2022/03/03 04:38:22;;;;;;;10.20;5.43;;;-2.10;99.90;;;;;;5059103;28;20461;-80
2022/03/03 04:40:48;;;;;;;13.57;7.57;;;;;;;;;;5059299;28;20944;-80
2022/03/03 04:43:14;;;;;;;12.63;7.33;;;-2.10;99.90;;;;;;5059105;28;20185;-79
2022/03/03 04:45:40;;;;;;;37.67;8.50;;;;;;;;;;5059830;28;20222;-80
2022/03/03 04:48:06;;;;;;;16.30;8.73;;;;;;;;;;5059644;28;20557;-79
2022/03/03 04:50:32;;;;;;;13.40;7.00;;;;;;;;;;5058248;28;20481;-79
2022/03/03 04:52:59;;;;;;;12.10;7.53;;;-2.20;99.90;;;;;;5059317;28;20226;-79
2022/03/03 04:55:25;;;;;;;12.03;6.93;;;;;;;;;;5058547;28;20416;-80
2022/03/03 04:57:51;;;;;;;10.90;6.60;;;;;;;;;;5060394;28;20473;-80
2022/03/03 05:00:17;;;;;;;10.43;6.90;;;-2.40;99.90;;;;;;5059022;28;20824;-80
2022/03/03 05:02:43;;;;;;;11.17;6.90;;;-2.50;99.90;;;;;;5058564;28;20551;-80
2022/03/03 05:05:09;;;;;;;11.87;6.70;;;;;;;;;;5059540;28;20428;-79
2022/03/03 05:07:35;;;;;;;15.10;6.57;;;;;;;;;;5058860;28;20184;-79
2022/03/03 05:10:01;;;;;;;15.13;6.97;;;;;;;;;;5062564;28;20411;-79
2022/03/03 05:12:27;;;;;;;10.97;6.43;;;;;;;;;;5058127;28;20443;-79
2022/03/03 05:14:53;;;;;;;11.67;6.67;;;;;;;;;;5056898;28;20420;-79
2022/03/03 05:17:19;;;;;;;10.07;7.13;;;;;;;;;;5058572;28;20463;-79
2022/03/03 05:19:46;;;;;;;15.77;7.10;;;;;;;;;;5059411;28;20174;-79
2022/03/03 05:22:12;;;;;;;11.53;5.67;;;;;;;;;;5057726;28;20491;-79
2022/03/03 05:24:42;;;;;;;11.07;6.83;;;-2.60;99.90;;;;;;5058760;28;20765;-79
2022/03/03 05:27:10;;;;;;;18.00;7.20;;;;;;;;;;5059535;28;20438;-79
2022/03/03 05:29:36;;;;;;;13.07;7.10;;;;;;;;;;5057780;28;20470;-80
2022/03/03 05:32:02;;;;;;;12.43;7.23;;;;;;;;;;5058288;28;20432;-79
2022/03/03 05:34:28;;;;;;;9.40;5.90;;;;;;;;;;5059528;28;20427;-79
2022/03/03 05:36:54;;;;;;;14.50;6.70;;;;;;;;;;5058485;28;20471;-79
2022/03/03 05:39:21;;;;;;;11.73;6.47;;;-2.70;99.90;;;;;;5070122;28;20412;-79
2022/03/03 05:41:47;;;;;;;13.77;7.10;;;;;;;;;;5073250;28;20442;-79
2022/03/03 05:44:13;;;;;;;12.37;7.53;;;-2.70;99.90;;;;;;5071436;28;20507;-79
2022/03/03 05:46:44;;;;;;;12.03;7.23;;;-2.70;99.90;;;;;;5071826;28;20190;-79
2022/03/03 05:49:10;;;;;;;8.87;6.43;;;;;;;;;;5059829;28;20736;-79
2022/03/03 05:51:37;;;;;;;12.17;6.43;;;;;;;;;;5054085;28;20515;-79
2022/03/03 05:54:04;;;;;;;12.53;7.87;;;-2.50;99.90;;;;;;5055214;28;20505;-78
2022/03/03 05:56:34;;;;;;;11.30;6.50;;;-2.60;99.90;;;;;;5052821;28;20467;-79
2022/03/03 05:59:05;;;;;;;13.87;7.13;;;-2.70;99.90;;;;;;5053399;28;20508;-79
2022/03/03 06:01:31;;;;;;;11.93;6.67;;;;;;;;;;5056202;28;20438;-79
2022/03/03 06:04:00;;;;;;;11.37;6.73;;;-2.60;99.90;;;;;;5057302;28;20519;-79
2022/03/03 06:06:34;;;;;;;15.00;7.23;;;-2.60;99.90;;;;;;5057576;28;20479;-81
2022/03/03 06:09:08;;;;;;;11.07;6.60;;;-2.60;99.90;;;;;;5057114;28;20498;-81
2022/03/03 06:11:54;;;;;;;12.53;6.70;;;-2.50;99.90;;;;;;5056096;28;20467;-81
2022/03/03 06:14:40;;;;;;;14.20;7.10;;;-2.60;99.90;;;;;;5055628;28;20412;-82
2022/03/03 06:17:07;;;;;;;15.17;7.17;;;-2.60;99.90;;;;;;5055426;28;20452;-81
2022/03/03 06:19:39;;;;;;;14.47;7.80;;;-2.60;99.90;;;;;;5056184;28;20443;-80
2022/03/03 06:22:06;;;;;;;13.30;7.33;;;-2.70;99.90;;;;;;5054780;28;20436;-80
2022/03/03 06:24:33;;;;;;;10.60;6.87;;;;;;;;;;5055645;28;20407;-82
2022/03/03 06:27:01;;;;;;;12.07;6.83;;;-2.70;99.90;;;;;;5059671;28;20419;-82
2022/03/03 06:29:28;;;;;;;10.83;6.03;;;;;;;;;;5042768;28;20427;-82
2022/03/03 06:31:54;;;;;;;10.70;5.93;;;;;;;;;;5058891;28;20444;-81
2022/03/03 06:34:21;;;;;;;11.10;6.13;;;;;;;;;;5060393;28;20415;-82
2022/03/03 06:36:53;;;;;;;10.93;6.57;;;-2.70;99.90;;;;;;5058798;28;20543;-83
2022/03/03 06:39:19;;;;;;;5.67;3.23;;;;;;;;;;5060201;28;20419;-82
2022/03/03 06:41:45;;;;;;;11.70;5.87;;;;;;;;;;5059397;28;20459;-80
2022/03/03 06:44:11;;;;;;;9.47;5.80;;;;;;;;;;5060925;28;20533;-80
2022/03/03 06:46:37;;;;;;;9.27;5.33;;;;;;;;;;5059885;28;20412;-80
2022/03/03 06:49:03;;;;;;;11.07;5.73;;;;;;;;;;5061857;28;20441;-80
2022/03/03 06:51:33;;;;;;;11.57;6.90;;;-2.50;99.90;;;;;;5062366;28;20937;-80
2022/03/03 06:54:02;;;;;;;11.37;5.80;;;-2.40;99.90;;;;;;5062190;28;20395;-80
2022/03/03 06:56:30;;;;;;;9.30;5.87;;;-2.30;99.90;;;;;;5060475;28;20463;-80
2022/03/03 06:58:59;;;;;;;8.57;5.43;;;-2.30;99.90;;;;;;5061101;28;20439;-80
2022/03/03 07:01:29;;;;;;;8.10;5.47;;;-2.20;99.90;;;;;;5064500;28;20432;-80
2022/03/03 07:03:56;;;;;;;8.77;4.87;;;-2.00;99.90;;;;;;5061164;28;20992;-80
2022/03/03 07:06:22;;;;;;;8.07;4.57;;;-1.90;99.90;;;;;;5062564;28;20925;-80
2022/03/03 07:08:53;;;;;;;9.53;5.60;;;-1.80;99.90;;;;;;5061185;28;20857;-80
2022/03/03 07:11:20;;;;;;;9.10;5.23;;;-1.80;99.90;;;;;;5061681;28;20492;-80
2022/03/03 07:13:47;;;;;;;9.93;5.33;;;-1.70;99.90;;;;;;5072168;28;20430;-80
2022/03/03 07:16:50;;;;;;;12.87;4.90;;;-1.50;99.90;;;;;;5077363;28;20618;-79
2022/03/03 07:19:37;;;;;;;14.33;6.73;;;-1.50;99.90;;;;;;5069646;28;20418;-80
2022/03/03 07:22:21;;;;;;;10.20;5.83;;;-1.30;99.90;;;;;;5060918;28;20424;-80
2022/03/03 07:24:52;;;;;;;8.73;5.67;;;-1.30;99.90;;;;;;5059995;28;20396;-81
2022/03/03 07:27:20;;;;;;;8.73;4.60;;;-1.30;99.90;;;;;;5060388;28;20533;-81
2022/03/03 07:29:50;;;;;;;8.13;5.67;;;-0.80;99.90;;;;;;5059452;28;20420;-81
2022/03/03 07:32:19;;;;;;;7.90;5.13;;;-0.90;99.90;;;;;;5061540;28;20436;-80
2022/03/03 07:34:50;;;;;;;12.50;6.07;;;-0.80;99.90;;;;;;5060056;28;20424;-80
2022/03/03 07:37:22;;;;;;;10.10;6.37;;;-0.80;99.90;;;;;;5060976;28;20444;-81
2022/03/03 07:39:48;;;;;;;8.03;5.73;;;;;;;;;;5060412;28;20448;-81
2022/03/03 07:42:17;;;;;;;9.63;6.47;;;-0.50;99.90;;;;;;5060410;28;20441;-81
2022/03/03 07:44:43;;;;;;;7.10;5.27;;;;;;;;;;5061160;28;20181;-81
2022/03/03 07:47:09;;;;;;;11.83;5.57;;;;;;;;;;5061908;28;20494;-81
2022/03/03 07:49:35;;;;;;;10.87;5.23;;;-0.20;99.90;;;;;;5061822;28;20443;-81
2022/03/03 07:52:05;;;;;;;7.23;4.53;;;0.70;99.90;;;;;;5061339;28;20307;-80
2022/03/03 07:54:31;;;;;;;11.53;4.60;;;;;;;;;;5060388;28;20184;-81
2022/03/03 07:56:59;;;;;;;10.13;6.07;;;1.80;99.90;;;;;;5060087;28;20464;-81
2022/03/03 07:59:32;;;;;;;11.70;6.37;;;2.50;99.90;;;;;;5060114;28;20915;-81
2022/03/03 08:02:01;;;;;;;10.57;6.53;;;2.80;99.90;;;;;;5060128;28;20439;-82
2022/03/03 08:04:29;;;;;;;15.20;6.23;;;3.40;99.90;;;;;;5061567;28;20227;-81
2022/03/03 08:07:07;;;;;;;11.23;6.00;;;3.30;99.90;;;;;;5059703;28;20223;-81
2022/03/03 08:09:36;;;;;;;10.77;5.93;;;3.80;99.90;;;;;;5061106;28;20184;-81
2022/03/03 08:12:04;;;;;;;13.83;6.17;;;4.00;99.90;;;;;;5061455;28;20285;-82
2022/03/03 08:14:31;;;;;;;12.77;7.07;;;4.70;99.60;;;;;;5059490;28;20701;-81
2022/03/03 08:16:57;;;;;;;19.43;10.03;;;4.90;97.70;;;;;;5059526;28;20228;-81
2022/03/03 08:19:24;;;;;;;34.53;13.23;;;5.20;96.80;;;;;;5060631;28;20173;-82
2022/03/03 08:21:51;;;;;;;10.97;6.83;;;5.80;96.10;;;;;;5061177;28;20529;-82
2022/03/03 08:24:17;;;;;;;11.43;7.63;;;6.20;93.30;;;;;;5061322;28;20175;-81
2022/03/03 08:26:46;;;;;;;10.80;6.23;;;6.30;92.70;;;;;;5060435;28;20333;-82
2022/03/03 08:29:13;;;;;;;14.87;7.27;;;6.50;92.50;;;;;;5060649;28;20240;-82
2022/03/03 08:31:48;;;;;;;12.57;7.53;;;7.40;90.30;;;;;;5059180;28;20352;-81
2022/03/03 08:34:23;;;;;;;15.90;7.50;;;7.50;85.90;;;;;;5059487;28;20171;-81
2022/03/03 08:36:56;;;;;;;12.30;8.60;;;7.60;86.80;;;;;;5058323;28;20191;-81
2022/03/03 08:39:27;;;;;;;11.60;6.80;;;8.10;83.60;;;;;;5055182;28;20198;-82
2022/03/03 08:41:57;;;;;;;11.93;7.47;;;8.30;80.90;;;;;;5056489;28;20200;-82
2022/03/03 08:44:31;;;;;;;12.23;8.03;;;8.50;79.80;;;;;;5060379;28;20639;-82
2022/03/03 08:46:57;;;;;;;14.87;7.50;;;8.70;80.20;;;;;;5059658;28;20541;-82
2022/03/03 08:49:29;;;;;;;13.10;6.87;;;8.50;77.10;;;;;;5058821;28;20173;-79
2022/03/03 08:51:55;;;;;;;14.10;7.37;;;8.70;75.30;;;;;;5060918;28;20632;-80
2022/03/03 08:54:21;;;;;;;14.23;6.83;;;9.00;74.80;;;;;;5060150;28;20177;-79
2022/03/03 08:56:47;;;;;;;12.83;7.70;;;9.50;76.10;;;;;;5064046;28;20204;-81
2022/03/03 08:59:13;;;;;;;14.83;8.07;;;10.00;73.50;;;;;;5059694;28;20557;-80
2022/03/03 09:01:38;;;;;;;13.37;7.57;;;10.30;73.40;;;;;;5076472;28;20201;-80
2022/03/03 09:04:05;;;;;;;12.90;7.43;;;10.40;69.10;;;;;;5083617;28;20174;-79
2022/03/03 09:06:31;;;;;;;27.57;8.93;;;10.60;67.60;;;;;;5086793;28;20224;-79
2022/03/03 09:08:58;;;;;;;16.47;8.37;;;11.00;67.20;;;;;;5065648;28;20589;-80
2022/03/03 09:11:23;;;;;;;16.47;8.63;;;11.30;65.90;;;;;;5058044;28;20202;-80
2022/03/03 09:13:49;;;;;;;17.93;9.80;;;11.10;66.50;;;;;;5059387;28;20257;-80
2022/03/03 09:16:17;;;;;;;18.47;10.10;;;10.60;67.90;;;;;;5060137;28;20205;-80
2022/03/03 09:18:45;;;;;;;16.60;9.57;;;10.30;70.60;;;;;;5059286;28;20194;-80
2022/03/03 09:21:10;;;;;;;18.67;10.43;;;10.60;70.40;;;;;;5075526;28;20206;-80
2022/03/03 09:23:36;;;;;;;14.10;8.93;;;10.70;70.10;;;;;;5060490;28;20182;-80
2022/03/03 09:26:02;;;;;;;15.03;10.13;;;10.80;70.10;;;;;;5059687;28;20637;-80
2022/03/03 09:28:28;;;;;;;17.93;10.53;;;11.00;71.30;;;;;;5058330;28;20280;-80
2022/03/03 09:30:56;;;;;;;17.10;11.40;;;11.00;69.90;;;;;;5059232;28;20237;-80
2022/03/03 09:33:23;;;;;;;14.77;11.27;;;11.10;70.20;;;;;;5059964;28;20169;-82
2022/03/03 09:35:49;;;;;;;13.40;10.27;;;11.00;68.80;;;;;;5058056;28;20181;-80
2022/03/03 09:38:15;;;;;;;15.97;12.03;;;11.20;65.50;;;;;;5058441;28;20311;-80
2022/03/03 09:40:42;;;;;;;13.77;10.87;;;11.40;66.10;;;;;;5058582;28;20202;-81
2022/03/03 09:43:09;;;;;;;14.80;11.10;;;11.60;61.10;;;;;;5060326;28;20176;-80
2022/03/03 09:45:36;;;;;;;17.87;10.90;;;11.90;62.50;;;;;;5059918;28;20169;-80
2022/03/03 09:48:05;;;;;;;15.17;11.90;;;12.30;64.60;;;;;;5058564;28;20178;-81
2022/03/03 09:50:31;;;;;;;15.17;11.73;;;12.60;64.00;;;;;;5059618;28;20170;-80
2022/03/03 09:52:58;;;;;;;15.27;11.53;;;12.40;62.60;;;;;;5058308;28;20183;-81
2022/03/03 09:55:24;;;;;;;15.80;12.40;;;12.50;64.00;;;;;;5059068;28;20173;-81
2022/03/03 09:57:50;;;;;;;13.93;11.20;;;12.70;63.50;;;;;;5058870;28;20212;-81
2022/03/03 10:00:17;;;;;;;16.17;11.80;;;12.70;64.20;;;;;;5057723;28;20178;-80
2022/03/03 10:02:57;;;;;;;15.97;11.97;;;12.70;63.10;;;;;;5058834;28;20182;-80
2022/03/03 10:05:36;;;;;;;16.03;11.43;;;12.80;64.40;;;;;;5074785;28;20195;-81
2022/03/03 10:08:23;;;;;;;15.83;11.53;;;12.30;62.60;;;;;;5058820;28;20201;-80
2022/03/03 10:10:58;;;;;;;13.87;11.23;;;12.00;62.30;;;;;;5059819;28;20291;-81
2022/03/03 10:13:24;;;;;;;13.30;11.17;;;12.20;62.10;;;;;;5058403;28;20205;-81
2022/03/03 10:15:53;;;;;;;14.77;11.67;;;12.40;62.30;;;;;;5058437;28;20177;-80
2022/03/03 10:18:19;;;;;;;13.67;10.80;;;12.60;60.50;;;;;;5057801;28;20201;-81
2022/03/03 10:20:54;;;;;;;14.13;11.07;;;12.70;62.50;;;;;;5058185;28;20198;-81
2022/03/03 10:23:34;;;;;;;16.60;11.50;;;13.00;63.80;;;;;;5076711;28;20203;-80
2022/03/03 10:26:03;;;;;;;12.53;10.20;;;13.30;61.40;;;;;;5059882;28;20205;-81
2022/03/03 10:28:37;;;;;;;13.37;10.93;;;13.00;59.30;;;;;;5058933;28;20704;-81
2022/03/03 10:31:10;;;;;;;13.33;10.60;;;12.70;62.70;;;;;;5058329;28;20194;-81
2022/03/03 10:33:44;;;;;;;12.27;10.70;;;12.70;61.90;;;;;;5059053;28;20177;-80
2022/03/03 10:36:16;;;;;;;15.63;11.10;;;12.80;59.10;;;;;;5059396;28;20174;-80
2022/03/03 10:38:51;;;;;;;12.33;11.00;;;12.80;60.00;;;;;;5058520;28;20207;-80
2022/03/03 10:41:29;;;;;;;21.77;11.83;;;13.00;60.10;;;;;;5058770;28;20209;-81
2022/03/03 10:43:55;;;;;;;14.63;10.87;;;13.30;60.60;;;;;;5058550;28;20507;-81
2022/03/03 10:46:21;;;;;;;17.93;11.10;;;13.10;58.80;;;;;;5059537;28;20654;-81
2022/03/03 10:48:47;;;;;;;20.73;12.27;;;13.00;59.50;;;;;;5058925;28;20213;-81
2022/03/03 10:51:16;;;;;;;13.27;11.13;;;12.80;61.90;;;;;;5060133;28;20189;-81
2022/03/03 10:53:43;;;;;;;15.57;10.83;;;12.90;62.30;;;;;;5060328;28;20169;-81
2022/03/03 10:56:14;;;;;;;15.57;11.47;;;13.40;59.20;;;;;;5058495;28;20184;-81
2022/03/03 10:58:48;;;;;;;13.73;11.60;;;13.70;57.90;;;;;;5060610;28;20582;-81
2022/03/03 11:01:15;;;;;;;15.40;11.67;;;13.80;59.60;;;;;;5057621;28;20605;-81
2022/03/03 11:03:49;;;;;;;14.70;11.47;;;13.60;57.90;;;;;;5057748;28;20178;-81
2022/03/03 11:06:15;;;;;;;13.70;11.30;;;13.40;58.80;;;;;;5074022;28;20206;-81
2022/03/03 11:08:41;;;;;;;13.00;11.60;;;13.10;58.50;;;;;;5057782;28;20181;-82
2022/03/03 11:11:08;;;;;;;13.93;11.03;;;13.10;59.40;;;;;;5058708;28;20270;-81
2022/03/03 11:13:35;;;;;;;15.20;11.53;;;13.40;59.50;;;;;;5062175;28;20195;-81
2022/03/03 11:16:01;;;;;;;14.03;11.17;;;13.80;56.70;;;;;;5062749;28;20261;-81
2022/03/03 11:18:28;;;;;;;20.33;11.40;;;14.10;59.40;;;;;;5076883;28;20190;-81
2022/03/03 11:20:54;;;;;;;14.03;10.73;;;14.20;56.30;;;;;;5060402;28;20203;-83
2022/03/03 11:23:21;;;;;;;21.37;11.27;;;13.90;55.90;;;;;;5061229;28;20185;-81
2022/03/03 11:25:49;;;;;;;18.37;11.40;;;13.60;56.20;;;;;;5059345;28;20175;-81
2022/03/03 11:28:15;;;;;;;16.00;11.53;;;13.60;55.80;;;;;;5073203;28;20169;-81
2022/03/03 11:30:45;;;;;;;18.30;11.77;;;13.40;55.60;;;;;;5063359;28;20212;-80
2022/03/03 11:33:24;;;;;;;14.60;11.50;;;13.20;56.50;;;;;;5061859;28;20187;-81
2022/03/03 11:36:03;;;;;;;15.53;11.47;;;13.40;56.50;;;;;;5060392;28;20172;-81
2022/03/03 11:38:52;;;;;;;17.33;12.40;;;13.50;54.80;;;;;;5063091;28;20226;-81
2022/03/03 11:41:20;;;;;;;18.30;12.43;;;14.00;55.20;;;;;;5042238;28;20203;-81
2022/03/03 11:43:58;;;;;;;19.97;13.30;;;14.30;52.60;;;;;;5061257;28;20175;-81
2022/03/03 11:46:47;;;;;;;18.20;11.90;;;13.60;52.00;;;;;;5060737;28;20657;-81
2022/03/03 11:49:26;;;;;;;12.47;11.00;;;13.80;51.20;;;;;;5060809;28;20174;-81
2022/03/03 11:51:55;;;;;;;22.87;11.90;;;13.90;51.30;;;;;;5061963;28;20194;-81
2022/03/03 11:54:32;;;;;;;14.33;11.10;;;14.30;49.90;;;;;;5061551;28;20162;-81
2022/03/03 11:57:03;;;;;;;14.83;11.07;;;14.50;49.20;;;;;;5060091;28;20182;-80
2022/03/03 11:59:48;;;;;;;14.93;11.00;;;14.80;48.40;;;;;;5059382;28;20177;-79
2022/03/03 12:02:18;;;;;;;13.43;11.17;;;14.60;47.20;;;;;;5058301;28;20220;-80
2022/03/03 12:04:44;;;;;;;14.60;10.93;;;14.70;47.30;;;;;;5059800;28;20208;-80
2022/03/03 12:07:29;;;;;;;13.70;11.40;;;15.20;47.50;;;;;;5059550;28;20569;-80
2022/03/03 12:09:58;;;;;;;15.00;11.07;;;15.40;46.50;;;;;;5060079;28;20163;-81
2022/03/03 12:12:29;;;;;;;14.97;11.30;;;15.10;47.30;;;;;;5060298;28;20726;-80
2022/03/03 12:15:00;;;;;;;14.33;11.97;;;15.60;47.60;;;;;;5062301;28;20173;-80
2022/03/03 12:17:47;;;;;;;15.80;11.77;;;15.80;47.80;;;;;;5061799;28;20255;-83
2022/03/03 12:20:35;;;;;;;15.13;11.33;;;15.90;49.40;;;;;;5059988;28;20530;-85
2022/03/03 12:23:36;;;;;;;16.20;12.67;;;16.00;48.10;;;;;;5060688;28;20171;-83
2022/03/03 12:26:04;;;;;;;16.07;12.93;;;16.20;49.20;;;;;;5019980;28;20209;-83
2022/03/03 12:28:35;;;;;;;13.60;11.37;;;16.40;47.80;;;;;;5051049;28;20187;-83
2022/03/03 12:31:17;;;;;;;16.97;12.33;;;16.40;50.00;;;;;;5069282;28;20198;-83
2022/03/03 12:33:54;;;;;;;15.43;10.97;;;16.40;47.10;;;;;;5058955;28;20172;-83
2022/03/03 12:36:20;;;;;;;14.30;12.00;;;16.80;46.40;;;;;;5058591;28;20169;-83
2022/03/03 12:38:46;;;;;;;15.77;12.50;;;17.00;46.30;;;;;;5058869;28;20171;-82
2022/03/03 12:41:11;;;;;;;17.43;12.90;;;17.30;46.60;;;;;;5058157;28;20199;-83
2022/03/03 12:43:39;;;;;;;14.30;11.33;;;17.30;44.90;;;;;;5060483;28;20253;-80
2022/03/03 12:46:05;;;;;;;14.40;11.90;;;17.20;46.50;;;;;;5058431;28;20224;-80
2022/03/03 12:48:33;;;;;;;15.13;12.30;;;17.50;44.30;;;;;;5059331;28;20701;-81
2022/03/03 12:51:09;;;;;;;14.17;12.03;;;17.50;45.00;;;;;;5059119;28;20214;-81
2022/03/03 12:53:47;;;;;;;15.63;12.43;;;17.60;45.70;;;;;;5059701;28;20196;-79
2022/03/03 12:56:27;;;;;;;14.07;12.30;;;17.60;44.90;;;;;;5057888;28;20657;-81
2022/03/03 12:58:54;;;;;;;17.67;12.43;;;18.00;44.70;;;;;;5057592;28;20176;-81
2022/03/03 13:01:24;;;;;;;15.30;12.90;;;17.60;43.90;;;;;;5058156;28;20202;-81
2022/03/03 13:03:50;;;;;;;16.43;12.90;;;17.30;45.30;;;;;;5057865;28;20205;-82
2022/03/03 13:06:25;;;;;;;26.13;13.70;;;17.30;45.40;;;;;;5057339;28;20569;-82
2022/03/03 13:08:59;;;;;;;14.93;11.83;;;17.30;43.80;;;;;;5073902;28;20620;-82
2022/03/03 13:11:25;;;;;;;18.47;12.90;;;17.30;44.30;;;;;;5057261;28;20265;-81